Time;durP1;ratioP1;P1;durP2;ratioP2;P2;SDS_P1;SDS_P2;PMS_P1;PMS_P2;Temp;Humidity;BMP_temperature;BMP_pressure;BME280_temperature;BME280_humidity;BME280_pressure;Samples;Min_cycle;Max_cycle;Signal;HPM_P1;HPM_P2
2023/06/01 00:00:44;;;;;;;4.97;3.55;;;20.80;49.40;;;;;;5050774;28;20144;-48
2023/06/01 00:03:13;;;;;;;6.22;3.47;;;20.70;49.50;;;;;;5049356;28;20059;-47
2023/06/01 00:05:53;;;;;;;6.90;3.70;;;20.60;49.50;;;;;;5048462;28;20110;-45
2023/06/01 00:08:25;;;;;;;5.18;3.67;;;20.60;49.60;;;;;;5050520;28;20052;-49
2023/06/01 00:10:57;;;;;;;4.32;3.63;;;20.60;50.10;;;;;;5044006;28;20052;-50
2023/06/01 00:13:24;;;;;;;5.65;3.83;;;20.50;49.90;;;;;;5051576;28;20041;-49
2023/06/01 00:15:57;;;;;;;6.93;3.70;;;20.50;50.00;;;;;;5025427;28;20049;-46
2023/06/01 00:18:27;;;;;;;7.88;3.88;;;20.40;50.10;;;;;;5046057;28;20034;-48
2023/06/01 00:21:00;;;;;;;6.35;3.85;;;20.30;50.10;;;;;;5050025;28;20045;-44
2023/06/01 00:23:30;;;;;;;6.68;3.92;;;20.30;50.30;;;;;;5049983;28;20044;-46
2023/06/01 00:25:57;;;;;;;5.50;4.40;;;20.30;50.30;;;;;;5047041;28;20044;-45
2023/06/01 00:28:29;;;;;;;7.13;4.55;;;20.20;50.40;;;;;;5032967;28;20048;-45
2023/06/01 00:30:56;;;;;;;7.90;4.32;;;20.20;50.40;;;;;;5032263;28;20132;-46
2023/06/01 00:33:25;;;;;;;7.85;5.00;;;20.10;50.60;;;;;;5047662;28;20056;-46
2023/06/01 00:35:54;;;;;;;6.97;4.32;;;20.10;51.00;;;;;;5048747;28;20525;-44
2023/06/01 00:38:21;;;;;;;4.50;3.92;;;20.00;50.80;;;;;;5033005;28;20037;-46
2023/06/01 00:40:51;;;;;;;6.45;4.25;;;19.90;50.80;;;;;;5032095;28;20055;-45
2023/06/01 00:43:18;;;;;;;7.35;4.15;;;19.90;51.00;;;;;;5047053;28;20558;-47
2023/06/01 00:45:49;;;;;;;6.43;4.73;;;19.80;51.10;;;;;;5049646;28;20049;-48
2023/06/01 00:48:23;;;;;;;4.43;4.03;;;19.80;51.10;;;;;;5051297;28;20045;-48
2023/06/01 00:50:51;;;;;;;6.03;4.38;;;19.70;51.30;;;;;;5049731;28;20444;-45
2023/06/01 00:53:20;;;;;;;7.20;4.55;;;19.70;51.40;;;;;;5042046;28;20068;-49
2023/06/01 00:55:56;;;;;;;6.10;4.80;;;19.60;51.60;;;;;;5027528;28;20061;-46
2023/06/01 00:58:23;;;;;;;9.55;4.57;;;19.60;51.90;;;;;;5032866;28;20041;-46
2023/06/01 01:00:56;;;;;;;8.77;5.35;;;19.50;51.60;;;;;;5031870;28;20052;-45
2023/06/01 01:03:25;;;;;;;10.55;6.00;;;19.50;51.80;;;;;;5048335;28;20045;-46
2023/06/01 01:06:02;;;;;;;;;;;19.40;51.80;;;;;;5048071;28;20140;-46
2023/06/01 01:08:40;;;;;;;8.18;5.15;;;19.40;50.30;;;;;;5032625;28;19934;-48
2023/06/01 01:11:21;;;;;;;7.55;5.30;;;19.30;52.00;;;;;;5031206;28;20346;-46
2023/06/01 01:14:01;;;;;;;6.05;5.10;;;19.30;52.10;;;;;;5049643;28;20064;-49
2023/06/01 01:16:35;;;;;;;5.90;5.00;;;19.20;52.50;;;;;;5031587;28;20075;-45
2023/06/01 01:19:42;;;;;;;5.93;4.78;;;19.10;52.10;;;;;;5027310;28;20124;-45
2023/06/01 01:22:31;;;;;;;5.85;4.82;;;19.10;52.80;;;;;;5041666;28;20052;-47
2023/06/01 01:25:25;;;;;;;8.05;5.20;;;18.90;52.70;;;;;;5045475;28;20037;-46
2023/06/01 01:28:23;;;;;;;7.20;5.43;;;18.90;52.90;;;;;;5032155;28;20131;-45
2023/06/01 01:30:55;;;;;;;6.07;4.72;;;18.80;53.30;;;;;;5031299;28;20044;-45
2023/06/01 01:33:24;;;;;;;7.47;5.32;;;18.70;52.70;;;;;;5024417;28;20099;-46
2023/06/01 01:36:00;;;;;;;5.68;4.72;;;18.70;52.70;;;;;;5030931;28;20044;-45
2023/06/01 01:38:28;;;;;;;7.07;5.82;;;18.70;53.40;;;;;;5016304;28;20048;-46
2023/06/01 01:41:02;;;;;;;9.63;5.88;;;18.60;52.90;;;;;;5047091;28;20040;-47
2023/06/01 01:43:33;;;;;;;8.60;6.32;;;18.50;53.00;;;;;;5049352;28;20071;-47
2023/06/01 01:46:28;;;;;;;9.15;5.78;;;18.50;53.10;;;;;;5048902;28;20074;-47
2023/06/01 01:49:24;;;;;;;7.57;6.05;;;18.50;53.70;;;;;;5044488;28;20053;-48
2023/06/01 01:52:06;;;;;;;6.78;5.35;;;18.40;54.50;;;;;;5048785;28;20053;-44
2023/06/01 01:54:41;;;;;;;8.48;5.90;;;18.40;53.70;;;;;;5045111;28;20128;-49
2023/06/01 01:57:10;;;;;;;6.63;5.60;;;18.40;53.50;;;;;;5023786;28;20052;-44
2023/06/01 01:59:38;;;;;;;7.30;5.75;;;18.30;53.50;;;;;;5031425;28;20036;-46
2023/06/01 02:02:05;;;;;;;8.13;5.60;;;18.30;53.60;;;;;;5037544;28;20041;-47
2023/06/01 02:04:32;;;;;;;7.07;6.15;;;18.30;53.70;;;;;;5030640;28;20073;-46
2023/06/01 02:06:59;;;;;;;10.13;6.80;;;18.20;53.80;;;;;;5039385;28;20069;-45
2023/06/01 02:09:30;;;;;;;7.93;5.95;;;18.20;53.90;;;;;;5031131;28;20470;-46
2023/06/01 02:11:56;;;;;;;8.85;6.57;;;18.10;53.90;;;;;;5026032;28;20081;-47
2023/06/01 02:14:23;;;;;;;13.52;7.50;;;18.10;54.00;;;;;;5030727;28;20045;-48
2023/06/01 02:16:55;;;;;;;9.38;7.38;;;18.00;54.10;;;;;;5048983;28;20036;-45
2023/06/01 02:19:22;;;;;;;9.30;6.40;;;18.00;54.10;;;;;;5025230;28;20477;-47
2023/06/01 02:21:50;;;;;;;8.57;6.25;;;17.90;54.20;;;;;;5022402;28;20576;-49
2023/06/01 02:24:17;;;;;;;9.52;7.28;;;17.90;54.30;;;;;;5027193;28;20712;-46
2023/06/01 02:26:48;;;;;;;11.02;6.97;;;17.80;54.40;;;;;;5055639;28;20554;-46
2023/06/01 02:29:15;;;;;;;7.65;6.72;;;17.80;54.60;;;;;;5031359;28;20049;-45
2023/06/01 02:31:44;;;;;;;9.93;6.35;;;17.80;54.60;;;;;;5030985;28;20075;-46
2023/06/01 02:34:11;;;;;;;10.55;7.13;;;17.80;54.70;;;;;;5026164;28;20087;-47
2023/06/01 02:36:43;;;;;;;9.32;7.70;;;17.70;54.70;;;;;;5030926;28;20073;-44
2023/06/01 02:39:12;;;;;;;10.07;7.70;;;17.70;54.80;;;;;;5040423;28;20048;-45
2023/06/01 02:41:41;;;;;;;9.02;7.63;;;17.70;55.00;;;;;;5042817;28;20702;-44
2023/06/01 02:44:08;;;;;;;9.15;7.18;;;17.60;54.80;;;;;;5039847;28;20060;-47
2023/06/01 02:46:38;;;;;;;17.45;9.02;;;17.60;55.00;;;;;;5051981;28;20064;-47
2023/06/01 02:49:08;;;;;;;9.85;8.32;;;17.50;55.30;;;;;;5031186;28;20040;-46
2023/06/01 02:51:35;;;;;;;10.70;7.50;;;17.50;55.10;;;;;;5029864;28;20034;-47
2023/06/01 02:54:12;;;;;;;14.63;8.23;;;17.40;55.10;;;;;;5046278;28;20042;-45
2023/06/01 02:56:44;;;;;;;11.88;9.23;;;17.30;55.10;;;;;;5042357;28;20040;-45
2023/06/01 02:59:21;;;;;;;11.65;7.65;;;17.30;55.50;;;;;;5034889;28;20033;-45
2023/06/01 03:02:02;;;;;;;10.57;7.53;;;17.20;55.70;;;;;;5034455;28;20545;-47
2023/06/01 03:04:32;;;;;;;9.57;8.30;;;17.20;55.70;;;;;;5026822;28;20091;-45
2023/06/01 03:07:04;;;;;;;10.82;8.48;;;17.10;55.50;;;;;;5034647;28;20064;-48
2023/06/01 03:09:47;;;;;;;11.60;8.65;;;17.10;55.70;;;;;;5034267;28;20448;-44
2023/06/01 03:12:29;;;;;;;10.40;7.20;;;17.00;55.70;;;;;;5052523;28;20041;-45
2023/06/01 03:15:00;;;;;;;12.55;8.75;;;16.90;55.70;;;;;;5051861;28;20091;-44
2023/06/01 03:17:29;;;;;;;9.80;8.55;;;16.80;56.20;;;;;;5031855;28;20039;-45
2023/06/01 03:20:07;;;;;;;13.15;8.82;;;16.80;56.20;;;;;;5031494;28;20060;-45
2023/06/01 03:22:35;;;;;;;14.18;8.48;;;16.70;56.20;;;;;;5029674;28;20061;-47
2023/06/01 03:25:08;;;;;;;14.25;8.70;;;16.70;56.20;;;;;;5028294;28;20033;-45
2023/06/01 03:27:35;;;;;;;11.52;9.02;;;16.70;56.30;;;;;;5060491;28;20037;-45
2023/06/01 03:30:12;;;;;;;11.70;8.05;;;16.60;56.40;;;;;;5033872;28;20040;-46
2023/06/01 03:32:46;;;;;;;10.45;8.75;;;16.60;56.60;;;;;;5051812;28;20045;-45
2023/06/01 03:35:13;;;;;;;13.95;9.07;;;16.60;56.60;;;;;;5026157;28;20041;-48
2023/06/01 03:37:45;;;;;;;15.05;9.07;;;16.50;56.90;;;;;;5034825;28;20033;-47
2023/06/01 03:40:20;;;;;;;14.32;9.60;;;16.50;57.20;;;;;;5033652;28;20414;-45
2023/06/01 03:42:57;;;;;;;13.00;9.85;;;16.50;57.20;;;;;;5029489;28;20667;-46
2023/06/01 03:45:24;;;;;;;15.82;11.07;;;16.50;57.60;;;;;;5033623;28;20568;-45
2023/06/01 03:47:53;;;;;;;24.40;13.43;;;16.60;57.40;;;;;;5034923;28;20041;-49
2023/06/01 03:50:26;;;;;;;17.45;13.60;;;16.60;57.30;;;;;;5032128;28;20043;-46
2023/06/01 03:52:57;;;;;;;21.40;13.52;;;16.60;57.50;;;;;;5033343;28;20049;-44
2023/06/01 03:55:27;;;;;;;21.20;14.35;;;16.60;57.30;;;;;;5026834;28;20044;-45
2023/06/01 03:57:56;;;;;;;23.48;15.32;;;16.60;57.30;;;;;;5052823;28;20049;-45
2023/06/01 04:00:30;;;;;;;22.42;14.73;;;16.60;57.30;;;;;;5033959;28;20136;-45
2023/06/01 04:03:07;;;;;;;22.13;15.15;;;16.50;57.30;;;;;;5032562;28;20187;-45
2023/06/01 04:05:36;;;;;;;;;;;16.50;57.50;;;;;;5049456;28;20082;-49
2023/06/01 04:08:09;;;;;;;24.85;16.73;;;16.60;56.30;;;;;;5034300;28;19920;-46
2023/06/01 04:10:40;;;;;;;26.58;16.75;;;16.60;57.40;;;;;;5033319;28;20037;-48
2023/06/01 04:13:10;;;;;;;22.67;15.73;;;16.50;57.20;;;;;;5019552;28;20037;-46
2023/06/01 04:15:37;;;;;;;26.30;17.00;;;16.50;57.40;;;;;;5032809;28;20410;-44
2023/06/01 04:18:06;;;;;;;21.05;14.95;;;16.50;57.70;;;;;;5030291;28;20132;-49
2023/06/01 04:21:10;;;;;;;;;;;;;;;;;;;;;
2023/06/01 04:23:37;;;;;;;24.90;15.65;;;16.50;57.40;;;;;;5033057;28;20132;-45
2023/06/01 04:26:06;;;;;;;21.95;13.63;;;16.60;57.40;;;;;;5025804;28;20574;-45
2023/06/01 04:28:35;;;;;;;20.85;15.27;;;16.50;57.30;;;;;;5034028;28;20068;-48
2023/06/01 04:31:02;;;;;;;20.23;14.30;;;16.50;57.30;;;;;;5050730;28;20037;-45
2023/06/01 04:33:29;;;;;;;22.63;14.40;;;16.50;57.40;;;;;;5031914;28;20128;-48
2023/06/01 04:36:00;;;;;;;21.50;14.10;;;16.40;57.30;;;;;;5028645;28;20045;-48
2023/06/01 04:38:32;;;;;;;19.05;13.77;;;16.40;57.50;;;;;;5033610;28;20041;-48
2023/06/01 04:41:00;;;;;;;23.33;15.57;;;16.30;57.30;;;;;;5030293;28;20459;-44
2023/06/01 04:43:27;;;;;;;23.42;14.90;;;16.30;57.40;;;;;;5024695;28;20540;-45
2023/06/01 04:45:55;;;;;;;21.60;14.68;;;16.20;57.50;;;;;;5042050;28;20147;-45
2023/06/01 04:48:22;;;;;;;19.55;13.27;;;16.10;57.50;;;;;;5032892;28;20041;-44
2023/06/01 04:50:58;;;;;;;17.75;12.57;;;16.10;57.60;;;;;;5031842;28;20060;-44
2023/06/01 04:53:29;;;;;;;16.15;12.27;;;16.00;57.60;;;;;;5023248;28;20051;-45
2023/06/01 04:55:56;;;;;;;15.57;12.02;;;16.00;57.70;;;;;;5026421;28;20041;-45
2023/06/01 04:58:25;;;;;;;13.20;10.90;;;16.00;57.90;;;;;;5026008;28;20037;-45
2023/06/01 05:00:54;;;;;;;12.63;9.50;;;15.90;58.30;;;;;;5035735;28;20056;-46
2023/06/01 05:03:20;;;;;;;10.98;8.77;;;16.00;57.70;;;;;;5027487;28;20086;-45
2023/06/01 05:05:49;;;;;;;13.00;10.38;;;15.90;57.70;;;;;;5028653;28;20103;-47
2023/06/01 05:08:16;;;;;;;11.75;8.95;;;15.90;57.90;;;;;;5026402;28;20131;-44
2023/06/01 05:10:46;;;;;;;14.95;10.20;;;15.90;57.80;;;;;;5030010;28;20052;-45
2023/06/01 05:13:13;;;;;;;12.57;9.32;;;16.00;58.00;;;;;;5030822;28;20069;-44
2023/06/01 05:15:40;;;;;;;11.35;8.98;;;16.00;57.70;;;;;;5022416;28;20040;-44
2023/06/01 05:18:07;;;;;;;11.80;8.52;;;16.00;57.80;;;;;;5022380;28;20037;-44
2023/06/01 05:20:33;;;;;;;10.07;7.30;;;16.00;57.90;;;;;;5030234;28;20045;-46
2023/06/01 05:23:00;;;;;;;9.48;8.40;;;16.10;58.10;;;;;;5031048;28;20072;-45
2023/06/01 05:25:27;;;;;;;15.50;8.90;;;16.10;57.80;;;;;;5040304;28;20066;-44
2023/06/01 05:27:54;;;;;;;11.95;8.95;;;16.20;57.90;;;;;;5030586;28;20033;-44
2023/06/01 05:30:24;;;;;;;11.55;8.88;;;16.20;57.50;;;;;;5030853;28;20413;-44
2023/06/01 05:32:51;;;;;;;9.38;8.38;;;16.40;57.40;;;;;;5047767;28;20045;-44
2023/06/01 05:35:20;;;;;;;9.75;7.60;;;16.40;57.10;;;;;;5024666;28;20106;-45
2023/06/01 05:37:49;;;;;;;9.43;7.72;;;16.50;56.80;;;;;;5028243;28;20057;-45
2023/06/01 05:40:16;;;;;;;8.48;7.45;;;16.50;56.50;;;;;;5054072;28;20098;-46
2023/06/01 05:42:44;;;;;;;11.60;8.30;;;16.50;56.20;;;;;;5025895;28;20052;-45
2023/06/01 05:45:11;;;;;;;9.48;8.20;;;16.50;56.20;;;;;;5030159;28;20487;-46
2023/06/01 05:47:38;;;;;;;10.82;7.75;;;16.60;56.20;;;;;;5030163;28;20055;-45
2023/06/01 05:50:05;;;;;;;8.50;7.00;;;16.60;56.20;;;;;;5028607;28;20146;-44
2023/06/01 05:52:33;;;;;;;9.07;6.55;;;16.70;56.30;;;;;;5031744;28;20037;-44
2023/06/01 05:55:01;;;;;;;11.02;6.78;;;16.70;56.10;;;;;;5027515;28;20037;-45
2023/06/01 05:57:28;;;;;;;7.85;7.00;;;16.80;55.80;;;;;;5028010;28;20040;-46
2023/06/01 05:59:55;;;;;;;10.60;7.70;;;16.90;55.70;;;;;;5041877;28;20052;-44
2023/06/01 06:02:21;;;;;;;9.60;7.35;;;16.90;55.60;;;;;;5030415;28;20808;-45
2023/06/01 06:04:48;;;;;;;11.27;8.82;;;17.00;55.50;;;;;;5048558;28;20487;-44
2023/06/01 06:07:15;;;;;;;9.60;6.75;;;17.00;55.40;;;;;;5046231;28;20049;-45
2023/06/01 06:09:41;;;;;;;7.38;6.65;;;17.10;55.30;;;;;;5046700;28;20094;-46
2023/06/01 06:12:08;;;;;;;8.70;7.43;;;17.10;55.10;;;;;;5040487;28;20751;-45
2023/06/01 06:14:35;;;;;;;10.80;6.88;;;17.20;55.00;;;;;;5047488;28;20528;-45
2023/06/01 06:17:04;;;;;;;7.30;6.35;;;17.20;54.70;;;;;;5047495;28;20103;-44
2023/06/01 06:19:31;;;;;;;6.85;6.13;;;17.30;54.60;;;;;;5034355;28;20035;-44
2023/06/01 06:21:58;;;;;;;10.93;6.93;;;17.30;54.40;;;;;;5049430;28;20156;-45
2023/06/01 06:24:24;;;;;;;8.63;7.05;;;17.30;54.40;;;;;;5054422;28;20127;-46
2023/06/01 06:26:53;;;;;;;8.45;7.40;;;17.30;54.20;;;;;;5050906;28;20052;-45
2023/06/01 06:29:20;;;;;;;9.20;6.82;;;17.30;54.10;;;;;;5052721;28;20100;-45
2023/06/01 06:31:49;;;;;;;10.27;7.10;;;17.30;54.10;;;;;;5048824;28;20060;-46
2023/06/01 06:34:15;;;;;;;10.50;7.00;;;17.30;54.10;;;;;;5053363;28;20456;-45
2023/06/01 06:36:42;;;;;;;9.05;6.35;;;17.30;54.00;;;;;;5034927;28;20132;-44
2023/06/01 06:39:09;;;;;;;10.55;6.80;;;17.20;53.90;;;;;;5052391;28;20559;-46
2023/06/01 06:41:36;;;;;;;14.25;7.00;;;17.20;54.00;;;;;;5048622;28;20045;-46
2023/06/01 06:44:03;;;;;;;11.63;7.18;;;17.20;54.00;;;;;;5051411;28;20059;-48
2023/06/01 06:46:30;;;;;;;9.38;6.63;;;17.10;54.10;;;;;;5052002;28;20041;-44
2023/06/01 06:48:57;;;;;;;11.13;7.40;;;17.10;54.20;;;;;;5047713;28;20056;-45
2023/06/01 06:51:23;;;;;;;9.43;6.82;;;16.90;54.40;;;;;;5064325;22;20056;-48
2023/06/01 06:53:50;;;;;;;9.77;7.63;;;16.90;54.50;;;;;;5030250;28;21078;-48
2023/06/01 06:56:17;;;;;;;9.18;6.78;;;16.80;54.40;;;;;;5029219;28;20033;-47
2023/06/01 06:58:45;;;;;;;10.30;7.60;;;16.70;54.50;;;;;;5026047;28;20068;-46
2023/06/01 07:01:29;;;;;;;8.88;6.70;;;16.60;54.80;;;;;;5026428;28;20045;-45
2023/06/01 07:03:56;;;;;;;11.35;7.35;;;16.60;54.80;;;;;;5031854;28;20041;-43
2023/06/01 07:06:23;;;;;;;10.60;7.38;;;16.50;54.90;;;;;;5030187;28;20508;-43
2023/06/01 07:08:49;;;;;;;9.63;7.32;;;16.50;55.10;;;;;;5029754;28;20042;-46
2023/06/01 07:11:16;;;;;;;10.07;7.32;;;16.40;55.30;;;;;;5031484;28;20091;-44
2023/06/01 07:13:43;;;;;;;10.05;7.00;;;16.40;55.50;;;;;;5031918;28;20095;-43
2023/06/01 07:16:11;;;;;;;12.13;7.88;;;16.40;56.50;;;;;;5025580;28;20423;-44
2023/06/01 07:18:37;;;;;;;12.13;8.80;;;16.40;56.00;;;;;;5032127;28;20095;-43
2023/06/01 07:21:04;;;;;;;13.88;9.18;;;16.40;55.90;;;;;;5032406;28;20046;-43
2023/06/01 07:23:31;;;;;;;11.15;7.95;;;16.50;56.10;;;;;;5031264;28;20563;-45
2023/06/01 07:25:57;;;;;;;10.32;7.55;;;16.50;56.00;;;;;;5031173;28;20069;-43
2023/06/01 07:28:29;;;;;;;10.63;7.80;;;16.40;55.90;;;;;;5032142;28;20559;-44
2023/06/01 07:30:56;;;;;;;8.82;6.80;;;16.40;56.00;;;;;;5030228;28;20042;-44
2023/06/01 07:33:25;;;;;;;9.43;7.55;;;16.40;55.80;;;;;;5029583;28;20129;-48
2023/06/01 07:35:53;;;;;;;15.05;11.63;;;16.40;56.00;;;;;;5029467;28;20533;-46
2023/06/01 07:38:20;;;;;;;16.70;12.57;;;16.40;56.00;;;;;;5031697;28;20091;-46
2023/06/01 07:40:47;;;;;;;19.55;11.85;;;16.40;55.80;;;;;;5031338;28;20497;-48
2023/06/01 07:43:13;;;;;;;12.27;8.13;;;16.50;55.90;;;;;;5026630;28;20041;-46
2023/06/01 07:45:40;;;;;;;11.82;8.35;;;16.50;56.00;;;;;;5029272;28;20784;-48
2023/06/01 07:48:10;;;;;;;13.32;8.70;;;16.50;56.10;;;;;;5025894;28;20553;-46
2023/06/01 07:50:37;;;;;;;15.20;9.48;;;16.60;55.90;;;;;;5030814;28;20041;-46
2023/06/01 07:53:04;;;;;;;10.88;8.45;;;16.60;55.60;;;;;;5030974;28;20041;-48
2023/06/01 07:55:30;;;;;;;14.77;10.55;;;16.60;55.60;;;;;;5029642;28;20646;-46
2023/06/01 07:57:57;;;;;;;13.77;9.45;;;16.60;55.40;;;;;;5030630;28;20120;-45
2023/06/01 08:00:23;;;;;;;11.23;8.65;;;16.60;55.70;;;;;;5030557;28;20116;-44
2023/06/01 08:02:50;;;;;;;12.50;7.85;;;16.60;55.80;;;;;;5024444;28;20061;-47
2023/06/01 08:05:18;;;;;;;11.45;7.63;;;16.70;55.90;;;;;;5025868;28;20099;-46
2023/06/01 08:07:48;;;;;;;14.45;8.07;;;16.70;55.80;;;;;;5031128;28;20041;-48
2023/06/01 08:10:16;;;;;;;12.43;8.05;;;16.70;55.80;;;;;;5031304;28;20083;-49
2023/06/01 08:12:43;;;;;;;11.98;9.65;;;16.70;55.80;;;;;;5028563;28;20111;-46
2023/06/01 08:15:12;;;;;;;13.57;8.68;;;16.80;55.70;;;;;;5028527;28;20046;-46
2023/06/01 08:17:40;;;;;;;11.00;8.18;;;16.80;55.50;;;;;;5026136;28;20049;-43
2023/06/01 08:20:10;;;;;;;8.98;7.38;;;16.80;55.40;;;;;;5030716;28;20033;-47
2023/06/01 08:22:37;;;;;;;14.32;9.45;;;16.90;55.50;;;;;;5030155;28;20536;-45
2023/06/01 08:25:05;;;;;;;12.50;8.15;;;16.90;55.90;;;;;;5030328;28;20041;-46
2023/06/01 08:27:32;;;;;;;24.13;13.43;;;17.00;55.20;;;;;;5026002;28;20641;-45
2023/06/01 08:30:01;;;;;;;27.55;17.75;;;17.00;55.40;;;;;;5028115;28;20045;-47
2023/06/01 08:32:28;;;;;;;16.02;11.85;;;17.10;55.10;;;;;;5029320;28;20112;-45
2023/06/01 08:34:54;;;;;;;16.13;10.15;;;17.20;55.40;;;;;;5031391;28;20034;-46
2023/06/01 08:37:21;;;;;;;14.52;9.10;;;17.20;55.20;;;;;;5030203;28;20504;-44
2023/06/01 08:39:48;;;;;;;13.07;10.07;;;17.20;55.70;;;;;;5028537;28;20064;-44
2023/06/01 08:42:29;;;;;;;13.57;9.75;;;17.30;55.30;;;;;;5029690;28;20049;-44
2023/06/01 08:44:57;;;;;;;13.80;9.20;;;17.30;55.70;;;;;;5031873;28;20171;-46
2023/06/01 08:47:27;;;;;;;13.13;10.02;;;17.40;55.40;;;;;;5025742;28;20485;-47
2023/06/01 08:49:57;;;;;;;13.35;9.20;;;17.50;55.50;;;;;;5023400;28;20153;-45
2023/06/01 08:52:31;;;;;;;12.88;8.80;;;17.50;55.90;;;;;;5029437;28;20219;-45
2023/06/01 08:54:59;;;;;;;18.63;13.65;;;17.60;55.90;;;;;;5026731;28;20045;-45
2023/06/01 08:57:29;;;;;;;12.82;9.63;;;17.70;55.60;;;;;;5029816;28;20065;-45
2023/06/01 08:59:56;;;;;;;11.27;9.48;;;17.70;54.80;;;;;;5031044;28;20053;-43
2023/06/01 09:02:23;;;;;;;12.75;9.30;;;17.80;54.60;;;;;;5024239;28;20108;-45
2023/06/01 09:04:50;;;;;;;13.73;9.07;;;17.90;54.40;;;;;;5027384;28;20481;-44
2023/06/01 09:07:18;;;;;;;10.93;8.82;;;18.00;54.50;;;;;;5029380;28;20101;-46
2023/06/01 09:09:45;;;;;;;10.98;8.40;;;18.00;54.30;;;;;;5026951;28;20115;-45
2023/06/01 09:12:20;;;;;;;11.15;8.80;;;18.10;54.30;;;;;;5022253;28;20089;-44
2023/06/01 09:14:47;;;;;;;11.60;9.10;;;18.10;53.80;;;;;;5028688;28;20045;-47
2023/06/01 09:17:21;;;;;;;10.95;8.45;;;18.20;53.90;;;;;;5027998;28;20405;-49
2023/06/01 09:19:50;;;;;;;15.52;10.13;;;18.20;53.90;;;;;;5026278;28;20041;-45
2023/06/01 09:22:16;;;;;;;10.98;9.85;;;18.30;53.90;;;;;;5028322;28;20426;-45
2023/06/01 09:24:58;;;;;;;12.93;8.23;;;18.30;54.10;;;;;;5024292;28;20048;-48
2023/06/01 09:27:26;;;;;;;12.38;9.30;;;18.40;54.00;;;;;;5024438;28;20529;-45
2023/06/01 09:29:59;;;;;;;14.60;9.93;;;18.40;53.60;;;;;;5025517;28;20050;-45
2023/06/01 09:32:26;;;;;;;13.25;9.27;;;18.50;53.80;;;;;;5021204;28;20063;-43
2023/06/01 09:34:55;;;;;;;12.75;9.45;;;18.50;53.90;;;;;;5023136;28;20093;-46
2023/06/01 09:37:21;;;;;;;10.98;9.30;;;18.60;53.30;;;;;;5019124;28;20409;-46
2023/06/01 09:39:48;;;;;;;14.38;9.27;;;18.60;53.50;;;;;;5022202;28;20069;-45
2023/06/01 09:42:15;;;;;;;12.40;8.85;;;18.60;54.10;;;;;;5022252;28;20417;-44
2023/06/01 09:44:43;;;;;;;15.13;10.15;;;18.70;53.70;;;;;;5022744;28;20048;-46
2023/06/01 09:47:12;;;;;;;14.48;10.23;;;18.70;53.50;;;;;;5022566;28;20045;-45
2023/06/01 09:49:44;;;;;;;12.32;10.20;;;18.80;53.20;;;;;;5025922;28;21398;-45
2023/06/01 09:52:16;;;;;;;12.85;9.38;;;18.80;53.30;;;;;;5025387;28;20080;-45
2023/06/01 09:54:54;;;;;;;12.10;10.13;;;18.90;53.40;;;;;;5007038;28;20124;-46
2023/06/01 09:57:26;;;;;;;13.73;9.70;;;18.90;52.90;;;;;;5028518;28;20041;-44
2023/06/01 09:59:53;;;;;;;13.67;10.20;;;18.90;53.00;;;;;;5030469;28;20041;-48
2023/06/01 10:02:21;;;;;;;12.43;8.60;;;19.00;52.90;;;;;;5028335;28;20286;-44
2023/06/01 10:04:53;;;;;;;11.77;9.07;;;19.00;52.80;;;;;;5022505;28;20128;-49
2023/06/01 10:07:22;;;;;;;12.70;9.02;;;19.10;52.60;;;;;;5028739;28;20056;-47
2023/06/01 10:09:58;;;;;;;13.77;9.68;;;19.10;52.50;;;;;;5023691;28;20080;-49
2023/06/01 10:12:25;;;;;;;10.40;8.98;;;19.20;52.00;;;;;;5022141;28;20034;-50
2023/06/01 10:14:55;;;;;;;13.80;8.95;;;19.20;51.90;;;;;;5028388;28;20038;-50
2023/06/01 10:17:22;;;;;;;13.65;9.57;;;19.30;51.80;;;;;;5027884;28;20108;-47
2023/06/01 10:19:49;;;;;;;11.02;8.43;;;19.30;51.60;;;;;;5022358;28;20045;-49
2023/06/01 10:22:16;;;;;;;12.50;9.65;;;19.40;51.70;;;;;;5027733;28;20565;-50
2023/06/01 10:24:44;;;;;;;12.35;9.23;;;19.50;52.00;;;;;;5023690;28;20117;-49
2023/06/01 10:27:26;;;;;;;11.30;8.95;;;19.50;52.00;;;;;;5021321;28;20041;-48
2023/06/01 10:29:54;;;;;;;13.35;9.48;;;19.60;52.60;;;;;;5027693;28;20115;-49
2023/06/01 10:32:47;;;;;;;13.43;9.52;;;19.70;52.30;;;;;;5027359;28;20041;-47
2023/06/01 10:35:40;;;;;;;12.50;8.98;;;19.80;51.80;;;;;;5020705;28;20103;-49
2023/06/01 10:38:12;;;;;;;16.27;10.35;;;19.90;51.80;;;;;;5003627;28;20061;-51
2023/06/01 10:40:39;;;;;;;18.63;10.35;;;20.00;51.40;;;;;;5026699;28;20041;-51
2023/06/01 10:43:08;;;;;;;14.00;10.00;;;20.00;51.30;;;;;;5026782;28;20107;-49
2023/06/01 10:45:41;;;;;;;10.93;8.40;;;20.00;51.50;;;;;;5028223;28;20045;-51
2023/06/01 10:48:10;;;;;;;14.70;10.30;;;20.10;51.50;;;;;;5028871;28;20100;-51
2023/06/01 10:50:41;;;;;;;11.10;8.65;;;20.20;51.40;;;;;;5025761;28;20067;-47
2023/06/01 10:53:37;;;;;;;11.85;9.57;;;20.20;51.40;;;;;;5027601;28;20555;-49
2023/06/01 10:56:24;;;;;;;11.73;8.30;;;20.30;51.00;;;;;;4991021;28;20528;-52
2023/06/01 10:59:06;;;;;;;14.43;9.63;;;20.40;50.10;;;;;;5030266;28;20041;-53
2023/06/01 11:01:45;;;;;;;14.85;9.35;;;20.40;50.10;;;;;;5021755;28;20087;-49
2023/06/01 11:04:13;;;;;;;12.00;7.90;;;20.40;49.80;;;;;;5025102;28;20120;-47
2023/06/01 11:06:42;;;;;;;9.85;8.85;;;20.50;49.90;;;;;;5032228;28;20105;-50
2023/06/01 11:09:10;;;;;;;11.00;8.63;;;20.50;49.50;;;;;;5029155;28;20125;-49
2023/06/01 11:11:52;;;;;;;11.57;9.15;;;20.60;49.60;;;;;;5007934;28;20095;-51
2023/06/01 11:14:24;;;;;;;11.85;9.18;;;20.70;48.70;;;;;;5025598;28;20575;-47
2023/06/01 11:16:54;;;;;;;13.25;8.73;;;20.70;48.80;;;;;;5031721;28;20484;-49
2023/06/01 11:19:24;;;;;;;12.50;8.05;;;20.80;48.90;;;;;;5028087;28;20049;-50
2023/06/01 11:22:03;;;;;;;14.45;8.77;;;20.90;49.50;;;;;;5031760;28;20046;-49
2023/06/01 11:24:34;;;;;;;11.82;7.68;;;20.90;48.10;;;;;;5030119;28;20061;-50
2023/06/01 11:27:06;;;;;;;12.63;8.35;;;20.90;48.60;;;;;;5034726;28;20049;-50
2023/06/01 11:29:34;;;;;;;10.88;7.25;;;21.00;47.80;;;;;;5014247;28;20038;-49
2023/06/01 11:32:03;;;;;;;9.98;6.88;;;21.00;48.00;;;;;;5026488;28;20038;-48
2023/06/01 11:34:43;;;;;;;12.52;7.88;;;21.10;47.80;;;;;;5031486;28;20220;-51
2023/06/01 11:37:14;;;;;;;10.48;8.30;;;21.30;47.70;;;;;;5032049;28;20041;-50
2023/06/01 11:39:41;;;;;;;11.85;8.63;;;21.30;47.70;;;;;;5031739;28;20045;-46
2023/06/01 11:42:15;;;;;;;11.15;8.75;;;21.50;47.50;;;;;;5029128;28;20041;-47
2023/06/01 11:44:56;;;;;;;13.23;8.20;;;21.50;47.10;;;;;;5031305;28;20047;-49
2023/06/01 11:47:27;;;;;;;9.90;6.70;;;21.60;46.70;;;;;;5032051;28;20107;-50
2023/06/01 11:49:54;;;;;;;9.17;7.53;;;21.70;46.40;;;;;;5026656;28;20045;-49
2023/06/01 11:52:21;;;;;;;9.48;7.45;;;21.70;46.90;;;;;;5031194;28;20048;-49
2023/06/01 11:54:48;;;;;;;12.07;7.95;;;21.70;46.80;;;;;;5029386;28;20494;-48
2023/06/01 11:57:15;;;;;;;9.60;7.80;;;21.80;46.10;;;;;;5030684;28;20476;-49
2023/06/01 11:59:45;;;;;;;11.63;7.05;;;21.80;46.00;;;;;;5031249;28;20041;-51
2023/06/01 12:02:27;;;;;;;12.57;7.95;;;21.80;46.20;;;;;;5030448;28;20038;-50
2023/06/01 12:05:13;;;;;;;9.15;7.28;;;21.90;45.30;;;;;;5023294;28;20047;-49
2023/06/01 12:07:48;;;;;;;13.82;7.72;;;22.00;45.70;;;;;;5023945;28;20037;-49
2023/06/01 12:10:16;;;;;;;7.38;6.38;;;22.00;45.50;;;;;;5031013;28;20510;-49
2023/06/01 12:12:44;;;;;;;18.60;6.93;;;22.10;45.70;;;;;;5031145;28;20041;-51
2023/06/01 12:15:11;;;;;;;10.13;6.13;;;22.10;45.70;;;;;;5026695;28;20052;-51
2023/06/01 12:17:55;;;;;;;12.05;7.25;;;22.20;46.60;;;;;;5029769;28;20444;-47
2023/06/01 12:20:35;;;;;;;11.52;7.07;;;22.30;45.50;;;;;;5030371;28;20033;-51
2023/06/01 12:23:13;;;;;;;9.00;6.35;;;22.40;45.90;;;;;;5026293;28;20049;-50
2023/06/01 12:25:49;;;;;;;9.35;6.78;;;22.50;45.40;;;;;;5026117;28;20045;-52
2023/06/01 12:28:19;;;;;;;9.23;7.07;;;22.70;45.20;;;;;;5031545;28;20050;-52
2023/06/01 12:30:46;;;;;;;9.50;6.70;;;22.80;45.20;;;;;;5030653;28;20136;-50
2023/06/01 12:33:36;;;;;;;9.35;6.88;;;22.80;45.20;;;;;;5029584;28;20045;-51
2023/06/01 12:36:06;;;;;;;9.48;7.30;;;23.00;44.60;;;;;;5026651;28;20057;-51
2023/06/01 12:38:51;;;;;;;6.50;5.32;;;23.10;44.20;;;;;;5023635;28;20577;-51
2023/06/01 12:41:18;;;;;;;10.77;6.10;;;23.10;43.50;;;;;;5029446;28;20458;-51
2023/06/01 12:43:46;;;;;;;9.82;6.50;;;23.30;44.60;;;;;;5027585;28;20095;-49
2023/06/01 12:46:20;;;;;;;11.13;6.82;;;23.30;43.80;;;;;;5026067;28;20039;-50
2023/06/01 12:48:47;;;;;;;11.20;6.80;;;23.40;43.00;;;;;;5029680;28;20041;-50
2023/06/01 12:51:15;;;;;;;9.70;6.38;;;23.50;43.00;;;;;;5029929;28;20042;-50
2023/06/01 12:53:42;;;;;;;8.23;6.20;;;23.60;43.20;;;;;;5028687;28;20085;-51
2023/06/01 12:56:11;;;;;;;10.13;6.75;;;23.70;43.80;;;;;;5027562;28;20045;-51
2023/06/01 12:58:38;;;;;;;8.30;5.95;;;23.70;43.50;;;;;;5029717;28;20049;-50